createdAt,value
2018-04-20T00:00:59.429Z,11.80
2018-04-20T00:03:27.691Z,11.70
2018-04-20T00:05:55.601Z,11.60
2018-04-20T00:08:23.091Z,11.80
2018-04-20T00:10:50.592Z,11.60
2018-04-20T00:13:18.828Z,11.60
2018-04-20T00:15:46.572Z,11.50
2018-04-20T00:18:14.068Z,12.00
2018-04-20T00:20:41.791Z,11.50
2018-04-20T00:23:09.263Z,11.50
2018-04-20T00:25:36.765Z,11.40
2018-04-20T00:28:05.020Z,11.40
2018-04-20T00:30:32.506Z,11.40
2018-04-20T00:33:00.763Z,11.40
2018-04-20T00:35:30.012Z,11.40
2018-04-20T00:37:57.544Z,11.40
2018-04-20T00:40:25.044Z,11.30
2018-04-20T00:42:52.554Z,11.30
2018-04-20T00:45:20.792Z,11.30
2018-04-20T00:47:48.628Z,11.30
2018-04-20T00:50:16.102Z,11.30
2018-04-20T00:52:43.576Z,11.30
2018-04-20T00:55:11.069Z,11.30
2018-04-20T00:57:39.308Z,11.20
2018-04-20T01:00:06.784Z,11.20
2018-04-20T01:02:35.044Z,11.00
2018-04-20T01:05:03.320Z,11.00
2018-04-20T01:07:31.053Z,10.90
2018-04-20T01:09:58.544Z,11.00
2018-04-20T01:12:26.020Z,11.00
2018-04-20T01:14:54.539Z,10.80
2018-04-20T01:17:22.057Z,10.80
2018-04-20T01:19:50.607Z,10.70
2018-04-20T01:22:18.083Z,10.70
2018-04-20T01:24:46.340Z,10.70
2018-04-20T01:27:14.075Z,10.60
2018-04-20T01:29:41.544Z,10.60
2018-04-20T01:32:09.043Z,10.50
2018-04-20T01:34:36.609Z,10.40
2018-04-20T01:37:04.851Z,10.30
2018-04-20T01:39:32.354Z,10.30
2018-04-20T01:41:59.831Z,10.20
2018-04-20T01:44:27.307Z,10.20
2018-04-20T01:46:54.799Z,10.20
2018-04-20T01:49:23.780Z,10.10
2018-04-20T01:51:51.260Z,10.20
2018-04-20T01:54:19.519Z,10.00
2018-04-20T01:56:47.091Z,9.90
2018-04-20T01:59:15.328Z,9.90
2018-04-20T02:01:43.076Z,9.90
2018-04-20T02:04:10.548Z,9.90
2018-04-20T02:06:38.024Z,9.90
2018-04-20T02:09:05.566Z,9.80
2018-04-20T02:11:33.049Z,9.80
2018-04-20T02:14:00.532Z,9.70
2018-04-20T02:16:28.331Z,9.70
2018-04-20T02:18:55.803Z,9.60
2018-04-20T02:21:23.401Z,9.60
2018-04-20T02:23:51.924Z,9.50
2018-04-20T02:26:19.440Z,9.50
2018-04-20T02:28:47.968Z,9.40
2018-04-20T02:31:15.479Z,9.30
2018-04-20T02:33:43.720Z,9.30
2018-04-20T02:36:11.230Z,9.30
2018-04-20T02:38:39.483Z,9.10
2018-04-20T02:41:08.012Z,9.00
2018-04-20T02:43:35.528Z,9.00
2018-04-20T02:46:03.040Z,8.90
2018-04-20T02:48:30.517Z,9.00
2018-04-20T02:50:58.002Z,9.00
2018-04-20T02:53:26.275Z,9.00
2018-04-20T02:55:54.736Z,8.90
2018-04-20T02:58:22.800Z,8.90
2018-04-20T03:00:50.515Z,8.90
2018-04-20T03:03:18.684Z,8.90
2018-04-20T03:05:46.164Z,8.90
2018-04-20T03:08:13.668Z,8.80
2018-04-20T03:10:41.148Z,8.80
2018-04-20T03:13:09.392Z,8.80
2018-04-20T03:15:37.016Z,8.70
2018-04-20T03:18:04.491Z,8.70
2018-04-20T03:20:32.020Z,8.60
2018-04-20T03:22:59.471Z,8.60
2018-04-20T03:25:26.946Z,8.60
2018-04-20T03:27:54.460Z,8.50
2018-04-20T03:30:22.731Z,8.50
2018-04-20T03:32:51.012Z,8.20
2018-04-20T03:35:19.539Z,8.10
2018-04-20T03:37:47.036Z,8.10
2018-04-20T03:40:14.507Z,8.10
2018-04-20T03:42:42.751Z,8.00
2018-04-20T03:45:10.490Z,8.00
2018-04-20T03:47:38.251Z,7.90
2018-04-20T03:50:05.735Z,8.00
2018-04-20T03:52:33.236Z,8.10
2018-04-20T03:55:01.480Z,8.10
2018-04-20T03:57:29.203Z,8.10
2018-04-20T03:59:56.982Z,8.20
2018-04-20T04:02:24.731Z,8.20
2018-04-20T04:04:52.204Z,8.20
2018-04-20T04:07:19.712Z,8.10
2018-04-20T04:09:48.234Z,8.10
2018-04-20T04:12:15.747Z,8.10
2018-04-20T04:14:43.212Z,8.10
2018-04-20T04:17:23.251Z,8.10
2018-04-20T04:33:19.000Z,7.90
2018-04-20T04:35:46.475Z,7.70
2018-04-20T04:38:13.951Z,7.70
2018-04-20T04:40:41.779Z,7.70
2018-04-20T04:43:09.544Z,7.80
2018-04-20T04:45:37.060Z,7.90
2018-04-20T04:48:05.588Z,8.00
2018-04-20T04:50:33.096Z,8.00
2018-04-20T04:53:01.340Z,8.10
2018-04-20T04:55:29.179Z,8.00
2018-04-20T04:57:56.699Z,7.90
2018-04-20T05:00:24.941Z,7.90
2018-04-20T05:02:52.680Z,8.00
2018-04-20T05:05:20.440Z,7.90
2018-04-20T05:07:47.959Z,8.10
2018-04-20T05:10:16.479Z,9.80
2018-04-20T05:12:43.957Z,9.80
2018-04-20T05:15:11.451Z,10.60
2018-04-20T05:17:39.718Z,13.70
2018-04-20T05:20:07.199Z,13.70
2018-04-20T05:22:35.436Z,16.00
2018-04-20T05:25:03.167Z,16.00
2018-04-20T05:27:30.688Z,17.10
2018-04-20T05:29:58.929Z,18.30
2018-04-20T05:32:26.516Z,18.30
2018-04-20T05:34:54.760Z,19.40
2018-04-20T05:37:22.241Z,19.40
2018-04-20T05:39:50.065Z,20.10
2018-04-20T05:42:17.535Z,20.90
2018-04-20T05:44:45.013Z,20.90
2018-04-20T05:47:12.513Z,21.60
2018-04-20T05:49:39.986Z,21.70
2018-04-20T05:52:07.751Z,21.70
2018-04-20T05:54:35.313Z,22.10
2018-04-20T05:57:02.795Z,22.50
2018-04-20T05:59:30.267Z,22.80
2018-04-20T06:01:57.760Z,23.10
2018-04-20T06:04:25.235Z,22.90
2018-04-20T06:06:52.727Z,23.80
2018-04-20T06:09:20.223Z,23.80
2018-04-20T06:11:48.464Z,24.60
2018-04-20T06:14:16.014Z,24.60
2018-04-20T06:16:43.504Z,24.90
2018-04-20T06:19:11.747Z,25.70
2018-04-20T06:21:39.220Z,25.70
2018-04-20T06:24:06.946Z,25.50
2018-04-20T06:26:34.431Z,26.50
2018-04-20T06:29:02.170Z,26.70
2018-04-20T06:31:29.664Z,27.10
2018-04-20T06:33:58.203Z,28.00
2018-04-20T06:36:25.683Z,27.90
2018-04-20T06:38:53.182Z,28.00
2018-04-20T06:41:21.419Z,28.60
2018-04-20T06:43:48.896Z,28.50
2018-04-20T06:46:16.388Z,29.20
2018-04-20T06:48:44.783Z,29.30
2018-04-20T06:51:12.295Z,29.50
2018-04-20T06:53:40.557Z,30.20
2018-04-20T06:56:08.068Z,30.20
2018-04-20T06:58:35.844Z,30.50
2018-04-20T07:01:03.335Z,30.90
2018-04-20T07:03:30.811Z,30.90
2018-04-20T07:05:59.056Z,31.10
2018-04-20T07:08:26.555Z,31.00
2018-04-20T07:10:54.793Z,31.10
2018-04-20T07:13:22.268Z,31.10
2018-04-20T07:15:51.211Z,31.60
2018-04-20T07:18:18.976Z,32.30
2018-04-20T07:20:46.455Z,32.40
2018-04-20T07:23:13.954Z,32.20
2018-04-20T07:25:42.207Z,32.80
2018-04-20T07:28:11.215Z,29.40
2018-04-20T07:30:39.475Z,29.40
2018-04-20T07:33:07.195Z,29.40
2018-04-20T07:35:34.672Z,29.90
2018-04-20T07:38:02.163Z,30.80
2018-04-20T07:40:30.776Z,29.70
2018-04-20T07:43:00.147Z,30.80
2018-04-20T07:45:28.423Z,28.60
2018-04-20T07:47:55.896Z,28.50
2018-04-20T07:50:24.136Z,28.80
2018-04-20T07:52:51.719Z,28.70
2018-04-20T07:55:19.963Z,30.10
2018-04-20T07:57:47.439Z,30.10
2018-04-20T08:00:16.139Z,29.50
2018-04-20T08:02:44.751Z,26.00
2018-04-20T08:05:12.220Z,26.10
2018-04-20T08:07:39.716Z,24.20
2018-04-20T08:10:07.199Z,24.00
2018-04-20T08:12:35.451Z,25.50
2018-04-20T08:15:02.948Z,25.50
2018-04-20T08:17:30.644Z,25.60
2018-04-20T08:19:58.115Z,26.00
2018-04-20T08:22:25.612Z,26.70
2018-04-20T08:24:53.851Z,24.60
2018-04-20T08:27:21.324Z,24.50
2018-04-20T08:29:48.816Z,25.00
2018-04-20T08:32:16.296Z,24.50
2018-04-20T08:34:43.776Z,24.60
2018-04-20T08:37:11.268Z,23.90
2018-04-20T08:39:39.503Z,24.70
2018-04-20T08:42:07.019Z,24.70
2018-04-20T08:44:35.268Z,24.00
2018-04-20T08:47:02.739Z,24.00
2018-04-20T08:49:30.984Z,25.80
2018-04-20T08:51:58.560Z,25.10
2018-04-20T08:54:27.088Z,24.50
2018-04-20T08:56:54.572Z,24.50
2018-04-20T08:59:22.068Z,24.60
2018-04-20T09:01:50.308Z,24.10
2018-04-20T09:04:17.791Z,24.10
2018-04-20T09:06:46.047Z,24.30
2018-04-20T09:09:13.520Z,24.30
2018-04-20T09:11:41.776Z,24.90
2018-04-20T09:14:09.596Z,24.90
2018-04-20T09:16:37.120Z,24.90
2018-04-20T09:19:05.400Z,25.50
2018-04-20T09:21:33.663Z,25.30
2018-04-20T09:24:01.142Z,25.30
2018-04-20T09:26:29.399Z,26.00
2018-04-20T09:28:56.968Z,25.90
2018-04-20T09:31:25.204Z,27.30
2018-04-20T09:33:52.677Z,27.30
2018-04-20T09:36:20.175Z,27.50
2018-04-20T09:38:47.712Z,27.70
2018-04-20T09:41:16.028Z,27.50
2018-04-20T09:43:43.549Z,27.60
2018-04-20T09:46:11.854Z,28.60
2018-04-20T09:48:39.320Z,28.50
2018-04-20T09:51:07.088Z,28.80
2018-04-20T09:53:34.560Z,29.30
2018-04-20T09:56:02.036Z,29.80
2018-04-20T09:58:31.040Z,29.60
2018-04-20T10:00:58.516Z,29.50
2018-04-20T10:03:29.956Z,29.50
2018-04-20T10:05:58.219Z,29.20
2018-04-20T10:08:25.692Z,29.20
2018-04-20T10:10:53.931Z,30.50
2018-04-20T10:13:21.424Z,30.50
2018-04-20T10:15:50.008Z,30.90
2018-04-20T10:18:18.248Z,31.20
2018-04-20T10:20:45.744Z,31.20
2018-04-20T10:23:14.021Z,32.00
2018-04-20T10:25:42.544Z,32.30
2018-04-20T10:28:10.303Z,32.20
2018-04-20T10:30:37.778Z,32.50
2018-04-20T10:33:05.535Z,32.90
2018-04-20T10:35:33.031Z,33.50
2018-04-20T10:38:01.279Z,33.80
2018-04-20T10:40:29.020Z,33.70
2018-04-20T10:42:56.516Z,33.80
2018-04-20T10:45:25.225Z,34.40
2018-04-20T10:47:53.464Z,34.90
2018-04-20T10:50:22.068Z,34.80
2018-04-20T10:52:49.640Z,34.50
2018-04-20T10:55:18.100Z,33.30
2018-04-20T10:57:45.603Z,33.20
2018-04-20T11:00:13.168Z,32.30
2018-04-20T11:02:40.646Z,33.00
2018-04-20T11:05:08.140Z,33.70
2018-04-20T11:07:35.644Z,33.60
2018-04-20T11:10:04.329Z,34.30
2018-04-20T11:12:33.635Z,34.60
2018-04-20T11:15:04.164Z,34.30
2018-04-20T11:17:31.928Z,34.30
2018-04-20T11:19:59.435Z,34.80
2018-04-20T11:24:55.743Z,34.50
2018-04-20T11:27:23.496Z,34.20
2018-04-20T11:29:51.228Z,34.40
2018-04-20T11:32:19.492Z,34.90
2018-04-20T11:34:47.752Z,35.00
2018-04-20T11:37:15.285Z,34.90
2018-04-20T11:39:42.787Z,35.50
2018-04-20T11:42:11.304Z,36.00
2018-04-20T11:44:38.824Z,36.00
2018-04-20T11:47:07.256Z,36.40
2018-04-20T11:49:34.772Z,36.30
2018-04-20T11:52:03.012Z,36.20
2018-04-20T11:54:30.740Z,36.20
2018-04-20T11:56:58.505Z,36.20
2018-04-20T11:59:26.016Z,36.50
2018-04-20T12:01:54.260Z,35.10
2018-04-20T12:04:21.751Z,35.40
2018-04-20T12:06:49.996Z,36.30
2018-04-20T12:09:18.724Z,37.00
2018-04-20T12:11:47.235Z,37.40
2018-04-20T12:14:14.754Z,37.30
2018-04-20T12:16:43.278Z,37.10
2018-04-20T12:19:10.772Z,37.10
2018-04-20T12:21:38.249Z,36.90
2018-04-20T12:24:06.491Z,36.80
2018-04-20T12:26:33.989Z,36.70
2018-04-20T12:29:02.510Z,37.00
2018-04-20T12:31:30.038Z,37.00
2018-04-20T12:33:58.295Z,37.20
2018-04-20T12:36:26.540Z,37.50
2018-04-20T12:38:54.012Z,37.50
2018-04-20T12:41:21.565Z,37.40
2018-04-20T12:43:49.048Z,37.20
2018-04-20T12:46:17.291Z,37.00
2018-04-20T12:48:45.032Z,36.90
2018-04-20T12:51:12.540Z,37.00
2018-04-20T12:53:40.783Z,36.80
2018-04-20T12:56:08.284Z,36.70
2018-04-20T12:58:36.534Z,36.30
2018-04-20T13:01:04.015Z,36.20
2018-04-20T13:03:32.272Z,36.40
2018-04-20T13:05:59.989Z,36.40
2018-04-20T13:08:27.516Z,35.90
2018-04-20T13:10:56.027Z,35.80
2018-04-20T13:13:23.506Z,35.80
2018-04-20T13:15:51.248Z,35.30
2018-04-20T13:18:18.753Z,35.10
2018-04-20T13:20:46.233Z,34.40
2018-04-20T13:23:14.476Z,33.30
2018-04-20T13:25:42.005Z,33.30
2018-04-20T13:28:09.477Z,33.10
2018-04-20T13:30:36.952Z,32.80
2018-04-20T13:33:04.463Z,32.50
2018-04-20T13:35:31.935Z,32.20
2018-04-20T13:37:59.416Z,31.80
2018-04-20T13:40:26.915Z,31.80
2018-04-20T13:42:54.404Z,31.60
2018-04-20T13:45:21.876Z,31.40
2018-04-20T13:47:49.368Z,31.20
2018-04-20T13:50:17.613Z,30.80
2018-04-20T13:52:45.093Z,30.80
2018-04-20T13:55:12.588Z,30.80
2018-04-20T13:57:40.072Z,30.70
2018-04-20T14:00:07.824Z,30.60
2018-04-20T14:02:35.320Z,30.60
2018-04-20T14:05:03.144Z,30.60
2018-04-20T14:07:30.699Z,30.60
2018-04-20T14:09:58.212Z,30.50
2018-04-20T14:12:25.684Z,30.40
2018-04-20T14:14:53.928Z,29.50
2018-04-20T14:17:21.512Z,29.40
2018-04-20T14:19:49.758Z,29.40
2018-04-20T14:22:17.260Z,29.30
2018-04-20T14:24:44.803Z,29.60
2018-04-20T14:27:13.052Z,29.70
2018-04-20T14:29:40.528Z,29.70
2018-04-20T14:32:09.060Z,29.70
2018-04-20T14:34:36.580Z,29.70
2018-04-20T14:37:04.028Z,29.70
2018-04-20T14:39:32.288Z,29.60
2018-04-20T14:41:59.768Z,29.70
2018-04-20T14:44:28.019Z,29.60
2018-04-20T14:46:55.512Z,29.60
2018-04-20T14:49:22.984Z,29.60
2018-04-20T14:51:50.469Z,29.50
2018-04-20T14:54:17.972Z,29.40
2018-04-20T14:56:46.224Z,29.20
2018-04-20T14:59:13.700Z,29.30
2018-04-20T15:01:41.976Z,29.20
2018-04-20T15:04:10.651Z,29.10
2018-04-20T15:06:38.363Z,29.10
2018-04-20T15:09:05.859Z,29.10
2018-04-20T15:11:33.336Z,29.00
2018-04-20T15:14:01.583Z,28.90
2018-04-20T15:16:29.087Z,28.90
2018-04-20T15:18:56.597Z,28.90
2018-04-20T15:21:24.047Z,28.90
2018-04-20T15:23:51.760Z,28.80
2018-04-20T15:26:19.999Z,28.90
2018-04-20T15:28:47.486Z,28.80
2018-04-20T15:31:15.752Z,28.80
2018-04-20T15:33:44.012Z,28.60
2018-04-20T15:36:13.004Z,28.60
2018-04-20T15:38:41.288Z,28.50
2018-04-20T15:41:08.792Z,28.40
2018-04-20T15:43:36.267Z,28.50
2018-04-20T15:46:03.760Z,28.50
2018-04-20T15:48:31.476Z,28.30
2018-04-20T15:50:59.031Z,28.30
2018-04-20T15:53:26.524Z,28.20
2018-04-20T15:55:54.108Z,28.30
2018-04-20T15:58:22.643Z,28.10
2018-04-20T16:00:50.149Z,28.00
2018-04-20T16:03:18.388Z,27.90
2018-04-20T16:05:45.860Z,27.90
2018-04-20T16:08:13.360Z,27.90
2018-04-20T16:10:40.895Z,27.90
2018-04-20T16:13:09.136Z,27.90
2018-04-20T16:15:36.639Z,27.80
2018-04-20T16:18:04.903Z,27.80
2018-04-20T16:20:33.149Z,27.70
2018-04-20T16:23:00.644Z,27.70
2018-04-20T16:25:28.916Z,27.60
2018-04-20T16:27:57.160Z,27.50
2018-04-20T16:30:24.666Z,27.50
2018-04-20T16:32:52.139Z,27.40
2018-04-20T16:35:19.612Z,27.30
2018-04-20T16:37:47.112Z,27.20
2018-04-20T16:40:15.351Z,27.10
2018-04-20T16:42:42.823Z,27.10
2018-04-20T16:45:10.324Z,27.10
2018-04-20T16:47:37.800Z,27.10
2018-04-20T16:50:05.276Z,27.00
2018-04-20T16:52:32.768Z,26.90
2018-04-20T16:55:00.244Z,26.90
2018-04-20T16:57:28.488Z,26.90
2018-04-20T16:59:56.072Z,26.80
2018-04-20T17:02:24.348Z,26.70
2018-04-20T17:04:52.591Z,26.60
2018-04-20T17:07:20.176Z,26.60
2018-04-20T17:09:48.420Z,26.50
2018-04-20T17:12:15.897Z,26.50
2018-04-20T17:14:43.469Z,26.40
2018-04-20T17:17:11.716Z,26.30
2018-04-20T17:19:39.195Z,26.20
2018-04-20T17:22:06.793Z,26.20
2018-04-20T17:24:34.367Z,26.10
2018-04-20T17:27:01.873Z,26.00
2018-04-20T17:29:29.477Z,25.80
2018-04-20T17:31:57.005Z,25.70
2018-04-20T17:34:24.496Z,25.70
2018-04-20T17:36:51.996Z,25.60
2018-04-20T17:39:19.610Z,25.50
2018-04-20T17:41:47.084Z,25.40
2018-04-20T17:44:14.580Z,25.20
2018-04-20T17:46:42.144Z,25.10
2018-04-20T17:49:10.432Z,24.80
2018-04-20T17:51:38.692Z,24.60
2018-04-20T17:54:06.255Z,24.60
2018-04-20T17:56:34.576Z,24.40
2018-04-20T17:59:02.295Z,24.30
2018-04-20T18:01:30.543Z,24.10
2018-04-20T18:03:58.032Z,24.00
2018-04-20T18:06:26.324Z,23.60
2018-04-20T18:08:53.808Z,23.60
2018-04-20T18:11:21.283Z,23.50
2018-04-20T18:13:48.775Z,23.50
2018-04-20T18:16:17.011Z,23.20
2018-04-20T18:18:44.495Z,23.20
2018-04-20T18:21:12.055Z,23.10
2018-04-20T18:23:39.543Z,23.00
2018-04-20T18:26:07.032Z,22.90
2018-04-20T18:28:34.539Z,22.90
2018-04-20T18:31:02.856Z,22.60
2018-04-20T18:33:30.336Z,22.60
2018-04-20T18:35:57.828Z,22.40
2018-04-20T18:38:25.301Z,22.30
2018-04-20T18:40:53.543Z,21.90
2018-04-20T18:43:21.032Z,21.90
2018-04-20T18:45:49.280Z,21.80
2018-04-20T18:48:16.852Z,21.80
2018-04-20T18:50:45.112Z,21.70
2018-04-20T18:53:12.584Z,21.60
2018-04-20T18:55:40.966Z,21.20
2018-04-20T18:58:08.423Z,21.10
2018-04-20T19:00:36.665Z,20.80
2018-04-20T19:03:04.404Z,20.80
2018-04-20T19:05:31.904Z,20.70
2018-04-20T19:07:59.680Z,20.60
2018-04-20T19:10:27.956Z,20.40
2018-04-20T19:12:56.435Z,20.30
2018-04-20T19:15:24.964Z,20.00
2018-04-20T19:17:52.476Z,20.00
2018-04-20T19:20:21.005Z,19.80
2018-04-20T19:22:48.484Z,19.80
2018-04-20T19:25:15.958Z,19.50
2018-04-20T19:27:43.680Z,19.50
2018-04-20T19:30:11.156Z,19.50
2018-04-20T19:32:38.642Z,19.50
2018-04-20T19:35:06.148Z,19.40
2018-04-20T19:37:33.664Z,19.40
2018-04-20T19:40:01.904Z,19.10
2018-04-20T19:42:29.404Z,19.00
2018-04-20T19:44:57.644Z,18.80
2018-04-20T19:47:25.171Z,18.80
2018-04-20T19:49:52.687Z,18.50
2018-04-20T19:52:20.963Z,18.10
2018-04-20T19:54:49.212Z,18.10
2018-04-20T19:57:16.803Z,18.10
2018-04-20T19:59:45.059Z,18.10
2018-04-20T20:02:13.359Z,18.00
2018-04-20T20:04:41.729Z,18.00
2018-04-20T20:07:09.188Z,18.00
2018-04-20T20:09:37.459Z,17.90
2018-04-20T20:12:05.723Z,17.80
2018-04-20T20:14:33.203Z,17.80
2018-04-20T20:17:01.442Z,17.60
2018-04-20T20:19:28.935Z,17.60
2018-04-20T20:21:57.180Z,17.50
2018-04-20T20:24:24.657Z,17.50
2018-04-20T20:26:53.186Z,17.40
2018-04-20T20:29:20.696Z,17.40
2018-04-20T20:31:48.977Z,17.40
2018-04-20T20:34:17.260Z,17.40
2018-04-20T20:36:45.499Z,17.40
2018-04-20T20:39:13.232Z,17.40
2018-04-20T20:41:40.728Z,17.40
2018-04-20T20:44:08.208Z,17.30
2018-04-20T20:46:36.457Z,17.10
2018-04-20T20:49:03.948Z,17.10
2018-04-20T20:51:32.188Z,16.70
2018-04-20T20:53:59.664Z,16.60
2018-04-20T20:56:27.476Z,16.50
2018-04-20T20:58:54.999Z,16.50
2018-04-20T21:01:23.244Z,16.60
2018-04-20T21:03:50.741Z,16.50
2018-04-20T21:06:18.983Z,16.50
2018-04-20T21:08:46.560Z,16.50
2018-04-20T21:11:14.829Z,16.30
2018-04-20T21:13:42.393Z,16.30
2018-04-20T21:16:10.706Z,16.20
2018-04-20T21:18:38.199Z,16.20
2018-04-20T21:21:05.680Z,16.10
2018-04-20T21:23:33.960Z,16.10
2018-04-20T21:26:02.220Z,16.00
2018-04-20T21:28:29.695Z,16.00
2018-04-20T21:30:57.939Z,16.00
2018-04-20T21:33:25.436Z,16.00
2018-04-20T21:35:53.672Z,15.80
2018-04-20T21:38:21.147Z,15.80
2018-04-20T21:40:48.647Z,15.80
2018-04-20T21:43:16.132Z,15.70
2018-04-20T21:45:43.603Z,15.50
2018-04-20T21:48:12.153Z,15.40
2018-04-20T21:50:39.703Z,15.40
2018-04-20T21:53:07.186Z,15.40
2018-04-20T21:55:34.692Z,15.30
2018-04-20T21:58:02.933Z,15.30
2018-04-20T22:00:30.407Z,15.30
2018-04-20T22:02:57.976Z,15.20
2018-04-20T22:05:26.499Z,15.10
2018-04-20T22:07:55.216Z,15.10
2018-04-20T22:10:22.709Z,15.10
2018-04-20T22:12:50.952Z,14.80
2018-04-20T22:15:20.219Z,14.70
2018-04-20T22:17:47.716Z,14.70
2018-04-20T22:20:15.191Z,14.70
2018-04-20T22:22:43.718Z,14.60
2018-04-20T22:25:11.585Z,14.60
2018-04-20T22:27:39.079Z,14.60
2018-04-20T22:30:06.799Z,14.60
2018-04-20T22:32:34.316Z,14.60
2018-04-20T22:35:02.560Z,14.50
2018-04-20T22:37:30.296Z,14.50
2018-04-20T22:39:57.803Z,14.40
2018-04-20T22:42:25.277Z,14.30
2018-04-20T22:44:53.791Z,14.20
2018-04-20T22:47:21.318Z,14.20
2018-04-20T22:49:49.606Z,14.20
2018-04-20T22:52:18.555Z,14.20
2018-04-20T22:54:46.279Z,14.20
2018-04-20T22:57:13.757Z,14.20
2018-04-20T22:59:41.232Z,14.20
2018-04-20T23:02:09.492Z,14.10
2018-04-20T23:04:36.964Z,14.00
2018-04-20T23:07:05.260Z,14.00
2018-04-20T23:09:33.519Z,13.90
2018-04-20T23:12:00.996Z,13.90
2018-04-20T23:14:29.253Z,13.60
2018-04-20T23:16:57.512Z,13.60
2018-04-20T23:19:25.251Z,13.50
2018-04-20T23:21:53.016Z,13.50
2018-04-20T23:24:20.788Z,13.50
2018-04-20T23:26:48.291Z,13.50
2018-04-20T23:29:15.776Z,13.50
2018-04-20T23:31:43.315Z,13.40
2018-04-20T23:34:11.557Z,13.20
2018-04-20T23:36:39.292Z,13.20
2018-04-20T23:39:06.784Z,13.20
2018-04-20T23:41:34.386Z,13.20
2018-04-20T23:44:01.859Z,13.20
2018-04-20T23:46:29.363Z,13.20
2018-04-20T23:48:57.599Z,13.20
2018-04-20T23:51:25.111Z,13.10
2018-04-20T23:53:53.372Z,13.10
2018-04-20T23:56:20.843Z,13.10
2018-04-20T23:58:48.316Z,13.00
